sensor_id;sensor_type;location;lat;lon;timestamp;pressure;altitude;pressure_sealevel;temperature;humidity
82575;BME280;72260;65.870;13.210;2024-03-23T00:55:27;98481.06;;;0.34;91.38
82575;BME280;72260;65.870;13.210;2024-03-23T00:57:52;98498.34;;;0.36;91.49
82575;BME280;72260;65.870;13.210;2024-03-23T01:00:18;98492.22;;;0.37;91.16
82575;BME280;72260;65.870;13.210;2024-03-23T01:02:43;98494.97;;;0.33;91.30
82575;BME280;72260;65.870;13.210;2024-03-23T01:05:09;98493.41;;;0.31;91.09
82575;BME280;72260;65.870;13.210;2024-03-23T01:07:34;98493.66;;;0.26;91.77
82575;BME280;72260;65.870;13.210;2024-03-23T01:10:00;98497.09;;;0.27;91.57
82575;BME280;72260;65.870;13.210;2024-03-23T01:12:25;98494.59;;;0.25;91.70
82575;BME280;72260;65.870;13.210;2024-03-23T01:14:51;98500.53;;;0.27;91.73
82575;BME280;72260;65.870;13.210;2024-03-23T01:17:16;98492.06;;;0.24;92.21
82575;BME280;72260;65.870;13.210;2024-03-23T01:19:42;98506.16;;;0.20;91.96
82575;BME280;72260;65.870;13.210;2024-03-23T01:22:08;98503.38;;;0.23;92.12
82575;BME280;72260;65.870;13.210;2024-03-23T01:24:35;98500.03;;;0.21;92.38
82575;BME280;72260;65.870;13.210;2024-03-23T01:27:00;98505.91;;;0.24;92.21
82575;BME280;72260;65.870;13.210;2024-03-23T01:29:26;98503.31;;;0.24;92.29
82575;BME280;72260;65.870;13.210;2024-03-23T01:31:51;98514.94;;;0.33;91.78
82575;BME280;72260;65.870;13.210;2024-03-23T01:34:17;98511.94;;;0.25;91.32
82575;BME280;72260;65.870;13.210;2024-03-23T01:36:42;98519.50;;;0.29;91.67
82575;BME280;72260;65.870;13.210;2024-03-23T01:39:08;98518.28;;;0.35;91.68
82575;BME280;72260;65.870;13.210;2024-03-23T01:41:36;98509.41;;;0.39;91.18
82575;BME280;72260;65.870;13.210;2024-03-23T01:44:05;98509.50;;;0.38;91.05
82575;BME280;72260;65.870;13.210;2024-03-23T01:46:32;98503.06;;;0.29;91.30
82575;BME280;72260;65.870;13.210;2024-03-23T01:48:58;98505.91;;;0.24;91.53
82575;BME280;72260;65.870;13.210;2024-03-23T01:51:24;98500.28;;;0.32;92.22
82575;BME280;72260;65.870;13.210;2024-03-23T01:53:50;98495.50;;;0.40;91.77
82575;BME280;72260;65.870;13.210;2024-03-23T01:56:16;98497.41;;;0.37;91.79
82575;BME280;72260;65.870;13.210;2024-03-23T01:58:41;98499.69;;;0.43;92.00
82575;BME280;72260;65.870;13.210;2024-03-23T02:01:07;98503.28;;;0.40;91.59
82575;BME280;72260;65.870;13.210;2024-03-23T02:03:32;98504.72;;;0.46;90.89
82575;BME280;72260;65.870;13.210;2024-03-23T02:05:58;98507.72;;;0.38;90.99
82575;BME280;72260;65.870;13.210;2024-03-23T02:08:24;98504.38;;;0.52;90.27
82575;BME280;72260;65.870;13.210;2024-03-23T02:10:50;98506.22;;;0.34;90.21
82575;BME280;72260;65.870;13.210;2024-03-23T02:13:17;98504.53;;;0.33;90.76
82575;BME280;72260;65.870;13.210;2024-03-23T02:15:43;98507.34;;;0.30;90.21
82575;BME280;72260;65.870;13.210;2024-03-23T02:18:08;98508.91;;;0.17;91.09
82575;BME280;72260;65.870;13.210;2024-03-23T02:20:35;98511.59;;;0.15;90.88
82575;BME280;72260;65.870;13.210;2024-03-23T02:23:01;98509.59;;;0.20;91.33
82575;BME280;72260;65.870;13.210;2024-03-23T02:25:26;98509.75;;;0.17;91.53
82575;BME280;72260;65.870;13.210;2024-03-23T02:27:52;98509.59;;;0.20;91.60
82575;BME280;72260;65.870;13.210;2024-03-23T02:30:19;98506.91;;;0.22;91.29
82575;BME280;72260;65.870;13.210;2024-03-23T02:32:45;98503.38;;;0.23;91.18
82575;BME280;72260;65.870;13.210;2024-03-23T02:35:10;98504.97;;;0.25;91.51
82575;BME280;72260;65.870;13.210;2024-03-23T02:37:36;98500.72;;;0.24;91.43
82575;BME280;72260;65.870;13.210;2024-03-23T02:40:01;98502.38;;;0.25;91.51
82575;BME280;72260;65.870;13.210;2024-03-23T02:42:27;98504.75;;;0.30;91.64
82575;BME280;72260;65.870;13.210;2024-03-23T02:44:53;98501.03;;;0.34;91.17
82575;BME280;72260;65.870;13.210;2024-03-23T02:47:19;98500.53;;;0.27;91.57
82575;BME280;72260;65.870;13.210;2024-03-23T02:49:45;98502.63;;;0.37;91.63
82575;BME280;72260;65.870;13.210;2024-03-23T02:52:10;98504.22;;;0.39;91.63
82575;BME280;72260;65.870;13.210;2024-03-23T02:54:36;98507.72;;;0.38;91.75
82575;BME280;72260;65.870;13.210;2024-03-23T02:57:02;98508.19;;;0.30;91.33
82575;BME280;72260;65.870;13.210;2024-03-23T02:59:27;98517.13;;;0.25;91.43
82575;BME280;72260;65.870;13.210;2024-03-23T03:01:55;98504.97;;;0.25;91.39
82575;BME280;72260;65.870;13.210;2024-03-23T03:04:21;98519.75;;;0.25;91.51
82575;BME280;72260;65.870;13.210;2024-03-23T03:06:47;98514.94;;;0.33;90.89
82575;BME280;72260;65.870;13.210;2024-03-23T03:09:13;98512.44;;;0.47;90.37
82575;BME280;72260;65.870;13.210;2024-03-23T03:11:38;98516.44;;;0.37;90.23
82575;BME280;72260;65.870;13.210;2024-03-23T03:14:04;98518.66;;;0.29;90.37
82575;BME280;72260;65.870;13.210;2024-03-23T03:16:32;98525.69;;;0.27;90.99
82575;BME280;72260;65.870;13.210;2024-03-23T03:18:58;98527.94;;;0.33;90.96
82575;BME280;72260;65.870;13.210;2024-03-23T03:21:23;98530.44;;;0.34;91.17
82575;BME280;72260;65.870;13.210;2024-03-23T03:23:49;98533.56;;;0.25;91.08
82575;BME280;72260;65.870;13.210;2024-03-23T03:26:16;98521.56;;;0.23;91.34
82575;BME280;72260;65.870;13.210;2024-03-23T03:28:42;98522.25;;;0.26;91.18
82575;BME280;72260;65.870;13.210;2024-03-23T03:31:09;98524.84;;;0.26;91.82
82575;BME280;72260;65.870;13.210;2024-03-23T03:33:34;98520.66;;;0.24;91.52
82575;BME280;72260;65.870;13.210;2024-03-23T03:36:00;98517.97;;;0.25;91.14
82575;BME280;72260;65.870;13.210;2024-03-23T03:38:25;98521.94;;;0.32;91.61
82575;BME280;72260;65.870;13.210;2024-03-23T03:40:51;98527.03;;;0.18;91.12
82575;BME280;72260;65.870;13.210;2024-03-23T03:43:18;98532.06;;;0.21;91.07
82575;BME280;72260;65.870;13.210;2024-03-23T03:45:51;98529.84;;;0.14;91.25
82575;BME280;72260;65.870;13.210;2024-03-23T03:48:17;98532.50;;;0.29;91.02
82575;BME280;72260;65.870;13.210;2024-03-23T03:50:42;98528.34;;;0.41;91.63
82575;BME280;72260;65.870;13.210;2024-03-23T03:53:08;98523.91;;;0.43;91.18
82575;BME280;72260;65.870;13.210;2024-03-23T03:55:33;98528.88;;;0.48;90.43
82575;BME280;72260;65.870;13.210;2024-03-23T03:57:59;98532.63;;;0.42;90.57
82575;BME280;72260;65.870;13.210;2024-03-23T04:00:24;98524.69;;;0.45;90.51
82575;BME280;72260;65.870;13.210;2024-03-23T04:02:50;98526.16;;;0.33;90.58
82575;BME280;72260;65.870;13.210;2024-03-23T04:05:16;98534.13;;;0.15;90.34
82575;BME280;72260;65.870;13.210;2024-03-23T04:07:42;98534.91;;;0.17;90.43
82575;BME280;72260;65.870;13.210;2024-03-23T04:10:07;98532.56;;;0.28;90.40
82575;BME280;72260;65.870;13.210;2024-03-23T04:12:34;98529.22;;;0.26;90.66
82575;BME280;72260;65.870;13.210;2024-03-23T04:14:59;98528.03;;;0.31;90.89
82575;BME280;72260;65.870;13.210;2024-03-23T04:17:26;98529.22;;;0.26;90.80
82575;BME280;72260;65.870;13.210;2024-03-23T04:19:56;98527.28;;;0.29;91.48
82575;BME280;72260;65.870;13.210;2024-03-23T04:22:22;98531.47;;;0.32;91.37
82575;BME280;72260;65.870;13.210;2024-03-23T04:24:49;98532.56;;;0.28;91.62
82575;BME280;72260;65.870;13.210;2024-03-23T04:27:14;98533.50;;;0.27;91.43
82575;BME280;72260;65.870;13.210;2024-03-23T04:29:40;98533.50;;;0.27;91.65
82575;BME280;72260;65.870;13.210;2024-03-23T04:32:06;98540.19;;;0.31;91.32
82575;BME280;72260;65.870;13.210;2024-03-23T04:34:32;98528.97;;;0.30;91.04
82575;BME280;72260;65.870;13.210;2024-03-23T04:36:58;98534.94;;;0.32;91.05
82575;BME280;72260;65.870;13.210;2024-03-23T04:39:24;98538.25;;;0.34;91.00
82575;BME280;72260;65.870;13.210;2024-03-23T04:41:49;98532.22;;;0.34;91.01
82575;BME280;72260;65.870;13.210;2024-03-23T04:44:15;98536.75;;;0.30;91.10
82575;BME280;72260;65.870;13.210;2024-03-23T04:46:40;98536.50;;;0.35;91.41
82575;BME280;72260;65.870;13.210;2024-03-23T04:49:06;98543.03;;;0.26;90.98
82575;BME280;72260;65.870;13.210;2024-03-23T04:51:37;98541.28;;;0.27;90.67
82575;BME280;72260;65.870;13.210;2024-03-23T04:54:03;98547.88;;;0.17;90.56
82575;BME280;72260;65.870;13.210;2024-03-23T04:56:30;98555.75;;;0.15;90.38
82575;BME280;72260;65.870;13.210;2024-03-23T04:58:56;98554.31;;;0.10;90.50
82575;BME280;72260;65.870;13.210;2024-03-23T05:01:26;98554.72;;;0.02;90.95
82575;BME280;72260;65.870;13.210;2024-03-23T05:03:52;98546.81;;;-0.12;90.94
82575;BME280;72260;65.870;13.210;2024-03-23T05:06:18;98548.75;;;-0.16;91.57
82575;BME280;72260;65.870;13.210;2024-03-23T05:08:44;98552.47;;;-0.04;92.08
82575;BME280;72260;65.870;13.210;2024-03-23T05:11:11;98554.31;;;-0.06;91.60
82575;BME280;72260;65.870;13.210;2024-03-23T05:13:37;98541.25;;;-0.05;91.99
82575;BME280;72260;65.870;13.210;2024-03-23T05:16:03;98550.44;;;0.01;91.69
82575;BME280;72260;65.870;13.210;2024-03-23T05:18:29;98555.06;;;-0.04;91.48
82575;BME280;72260;65.870;13.210;2024-03-23T05:20:56;98550.94;;;-0.08;91.28
82575;BME280;72260;65.870;13.210;2024-03-23T05:23:23;98558.06;;;-0.12;90.96
82575;BME280;72260;65.870;13.210;2024-03-23T05:25:48;98561.72;;;-0.16;90.98
82575;BME280;72260;65.870;13.210;2024-03-23T05:28:14;98559.13;;;-0.16;90.88
82575;BME280;72260;65.870;13.210;2024-03-23T05:30:39;98558.16;;;-0.30;90.85
82575;BME280;72260;65.870;13.210;2024-03-23T05:33:05;98566.84;;;-0.31;91.22
82575;BME280;72260;65.870;13.210;2024-03-23T05:35:31;98558.84;;;-0.27;90.88
82575;BME280;72260;65.870;13.210;2024-03-23T05:37:57;98553.78;;;-0.30;90.89
82575;BME280;72260;65.870;13.210;2024-03-23T05:40:25;98564.09;;;-0.28;90.29
82575;BME280;72260;65.870;13.210;2024-03-23T05:42:51;98569.91;;;-0.23;91.06
82575;BME280;72260;65.870;13.210;2024-03-23T05:45:21;98562.34;;;-0.28;90.69
82575;BME280;72260;65.870;13.210;2024-03-23T05:47:48;98570.97;;;-0.27;90.88
82575;BME280;72260;65.870;13.210;2024-03-23T05:50:14;98573.63;;;-0.12;90.03
82575;BME280;72260;65.870;13.210;2024-03-23T05:52:39;98565.94;;;-0.13;89.83
82575;BME280;72260;65.870;13.210;2024-03-23T05:55:05;98572.66;;;-0.09;89.52
82575;BME280;72260;65.870;13.210;2024-03-23T05:57:31;98570.13;;;-0.11;89.23
82575;BME280;72260;65.870;13.210;2024-03-23T05:59:57;98578.75;;;-0.10;88.48
82575;BME280;72260;65.870;13.210;2024-03-23T06:02:24;98578.16;;;-0.15;88.15
82575;BME280;72260;65.870;13.210;2024-03-23T06:04:49;98577.38;;;-0.17;86.97
82575;BME280;72260;65.870;13.210;2024-03-23T06:07:15;98587.69;;;-0.16;86.95
82575;BME280;72260;65.870;13.210;2024-03-23T06:09:41;98593.50;;;-0.11;86.63
82575;BME280;72260;65.870;13.210;2024-03-23T06:12:07;98590.06;;;-0.11;85.71
82575;BME280;72260;65.870;13.210;2024-03-23T06:14:33;98589.41;;;0.01;86.17
82575;BME280;72260;65.870;13.210;2024-03-23T06:16:59;98592.28;;;0.12;85.04
82575;BME280;72260;65.870;13.210;2024-03-23T06:19:26;98595.66;;;0.14;85.16
82575;BME280;72260;65.870;13.210;2024-03-23T06:21:53;98602.06;;;0.24;84.16
82575;BME280;72260;65.870;13.210;2024-03-23T06:24:21;98607.09;;;0.27;82.70
82575;BME280;72260;65.870;13.210;2024-03-23T06:26:47;98613.47;;;0.38;82.24
82575;BME280;72260;65.870;13.210;2024-03-23T06:29:15;98607.69;;;0.48;81.15
82575;BME280;72260;65.870;13.210;2024-03-23T06:31:40;98613.00;;;0.62;79.76
82575;BME280;72260;65.870;13.210;2024-03-23T06:34:06;98616.53;;;0.77;78.01
82575;BME280;72260;65.870;13.210;2024-03-23T06:36:31;98607.88;;;0.77;76.72
82575;BME280;72260;65.870;13.210;2024-03-23T06:38:58;98623.66;;;0.89;76.17
82575;BME280;72260;65.870;13.210;2024-03-23T06:41:24;98623.66;;;0.89;76.45
82575;BME280;72260;65.870;13.210;2024-03-23T06:43:49;98627.94;;;0.90;77.08
82575;BME280;72260;65.870;13.210;2024-03-23T06:46:15;98625.66;;;0.84;77.28
82575;BME280;72260;65.870;13.210;2024-03-23T06:48:40;98627.69;;;0.95;76.57
82575;BME280;72260;65.870;13.210;2024-03-23T06:51:06;98632.53;;;1.17;75.78
82575;BME280;72260;65.870;13.210;2024-03-23T06:53:32;98631.31;;;1.38;76.03
82575;BME280;72260;65.870;13.210;2024-03-23T06:55:57;98629.78;;;1.50;75.82
82575;BME280;72260;65.870;13.210;2024-03-23T06:58:25;98634.94;;;1.65;75.21
82575;BME280;72260;65.870;13.210;2024-03-23T07:00:50;98634.38;;;1.60;75.14
82575;BME280;72260;65.870;13.210;2024-03-23T07:03:19;98634.94;;;1.65;73.81
82575;BME280;72260;65.870;13.210;2024-03-23T07:05:46;98634.50;;;1.73;74.04
82575;BME280;72260;65.870;13.210;2024-03-23T07:08:12;98638.75;;;1.90;72.90
82575;BME280;72260;65.870;13.210;2024-03-23T07:10:40;98643.78;;;2.07;70.91
82575;BME280;72260;65.870;13.210;2024-03-23T07:13:06;98638.00;;;2.02;70.29
82575;BME280;72260;65.870;13.210;2024-03-23T07:15:32;98645.34;;;1.95;71.22
82575;BME280;72260;65.870;13.210;2024-03-23T07:17:57;98650.53;;;1.81;71.72
82575;BME280;72260;65.870;13.210;2024-03-23T07:20:23;98648.38;;;1.74;71.72
82575;BME280;72260;65.870;13.210;2024-03-23T07:22:48;98645.09;;;1.70;nan
82575;BME280;72260;65.870;13.210;2024-03-23T07:25:14;98657.63;;;1.63;71.77
82575;BME280;72260;65.870;13.210;2024-03-23T07:27:39;98640.97;;;1.66;73.20
82575;BME280;72260;65.870;13.210;2024-03-23T07:30:06;98650.28;;;1.56;71.79
82575;BME280;72260;65.870;13.210;2024-03-23T07:32:32;98652.78;;;1.57;71.16
82575;BME280;72260;65.870;13.210;2024-03-23T07:34:57;98665.56;;;1.62;71.42
82575;BME280;72260;65.870;13.210;2024-03-23T07:37:23;98665.72;;;1.59;73.37
82575;BME280;72260;65.870;13.210;2024-03-23T07:39:48;98667.69;;;1.40;73.48
82575;BME280;72260;65.870;13.210;2024-03-23T07:42:14;98674.13;;;1.48;73.72
82575;BME280;72260;65.870;13.210;2024-03-23T07:44:39;98671.53;;;1.78;73.65
82575;BME280;72260;65.870;13.210;2024-03-23T07:47:05;98668.91;;;1.94;71.07
82575;BME280;72260;65.870;13.210;2024-03-23T07:49:30;98662.69;;;2.11;71.31
82575;BME280;72260;65.870;13.210;2024-03-23T07:51:56;98662.63;;;2.41;70.78
82575;BME280;72260;65.870;13.210;2024-03-23T07:54:21;98666.91;;;2.56;68.00
82575;BME280;72260;65.870;13.210;2024-03-23T07:56:47;98662.25;;;2.75;67.07
82575;BME280;72260;65.870;13.210;2024-03-23T07:59:12;98672.34;;;2.94;66.63
82575;BME280;72260;65.870;13.210;2024-03-23T08:01:38;98672.63;;;3.18;66.97
82575;BME280;72260;65.870;13.210;2024-03-23T08:04:03;98671.03;;;3.15;66.61
82575;BME280;72260;65.870;13.210;2024-03-23T08:06:29;98660.41;;;3.04;68.16
82575;BME280;72260;65.870;13.210;2024-03-23T08:08:55;98668.16;;;3.06;69.45
82575;BME280;72260;65.870;13.210;2024-03-23T08:11:28;98674.97;;;3.08;67.67
82575;BME280;72260;65.870;13.210;2024-03-23T08:13:54;98676.03;;;2.91;69.91
82575;BME280;72260;65.870;13.210;2024-03-23T08:16:20;98675.91;;;2.93;67.38
82575;BME280;72260;65.870;13.210;2024-03-23T08:18:45;98684.19;;;3.14;65.33
82575;BME280;72260;65.870;13.210;2024-03-23T08:21:11;98683.94;;;3.31;65.53
82575;BME280;72260;65.870;13.210;2024-03-23T08:23:37;98685.13;;;3.40;67.22
82575;BME280;72260;65.870;13.210;2024-03-23T08:26:05;98689.81;;;3.61;63.67
82575;BME280;72260;65.870;13.210;2024-03-23T08:28:30;98686.59;;;3.70;62.92
82575;BME280;72260;65.870;13.210;2024-03-23T08:30:56;98687.78;;;3.92;63.14
82575;BME280;72260;65.870;13.210;2024-03-23T08:33:22;98685.34;;;4.16;62.60
82575;BME280;72260;65.870;13.210;2024-03-23T08:35:59;98684.84;;;4.49;61.96
82575;BME280;72260;65.870;13.210;2024-03-23T08:38:25;98682.63;;;4.55;60.17
82575;BME280;72260;65.870;13.210;2024-03-23T08:40:59;98680.31;;;4.76;61.19
82575;BME280;72260;65.870;13.210;2024-03-23T08:43:25;98689.56;;;5.18;61.77
82575;BME280;72260;65.870;13.210;2024-03-23T08:45:51;98679.59;;;5.47;58.33
82575;BME280;72260;65.870;13.210;2024-03-23T08:48:17;98678.59;;;5.61;59.03
82575;BME280;72260;65.870;13.210;2024-03-23T08:50:43;98678.97;;;5.91;55.69
82575;BME280;72260;65.870;13.210;2024-03-23T08:53:09;98685.59;;;6.08;55.37
82575;BME280;72260;65.870;13.210;2024-03-23T08:55:34;98687.81;;;6.36;54.85
82575;BME280;72260;65.870;13.210;2024-03-23T08:58:00;98689.25;;;6.52;53.58
82575;BME280;72260;65.870;13.210;2024-03-23T09:00:26;98689.13;;;6.53;52.05
82575;BME280;72260;65.870;13.210;2024-03-23T09:02:51;98693.09;;;6.59;52.64
82575;BME280;72260;65.870;13.210;2024-03-23T09:05:18;98679.97;;;6.48;51.39
82575;BME280;72260;65.870;13.210;2024-03-23T09:07:43;98683.69;;;6.79;53.28
82575;BME280;72260;65.870;13.210;2024-03-23T09:10:09;98676.88;;;6.98;52.35
82575;BME280;72260;65.870;13.210;2024-03-23T09:12:34;98694.63;;;7.28;52.49
82575;BME280;72260;65.870;13.210;2024-03-23T09:15:01;98699.34;;;7.57;53.38
82575;BME280;72260;65.870;13.210;2024-03-23T09:17:27;98695.84;;;7.67;50.00
82575;BME280;72260;65.870;13.210;2024-03-23T09:19:52;98697.78;;;7.65;51.46
82575;BME280;72260;65.870;13.210;2024-03-23T09:22:18;98693.50;;;7.53;49.40
82575;BME280;72260;65.870;13.210;2024-03-23T09:24:43;98703.81;;;7.45;49.85
82575;BME280;72260;65.870;13.210;2024-03-23T09:27:09;98701.19;;;7.45;50.77
82575;BME280;72260;65.870;13.210;2024-03-23T09:29:34;98698.19;;;7.38;48.67
82575;BME280;72260;65.870;13.210;2024-03-23T09:32:00;98693.09;;;7.69;50.34
82575;BME280;72260;65.870;13.210;2024-03-23T09:34:25;98698.47;;;7.79;50.29
82575;BME280;72260;65.870;13.210;2024-03-23T09:36:51;98696.09;;;7.96;52.29
82575;BME280;72260;65.870;13.210;2024-03-23T09:39:17;98700.28;;;7.99;48.24
82575;BME280;72260;65.870;13.210;2024-03-23T09:41:43;98700.53;;;8.17;50.25
82575;BME280;72260;65.870;13.210;2024-03-23T09:44:09;98697.72;;;8.29;48.54
82575;BME280;72260;65.870;13.210;2024-03-23T09:46:34;98700.38;;;8.29;48.69
82575;BME280;72260;65.870;13.210;2024-03-23T09:49:02;98708.50;;;8.26;47.04
82575;BME280;72260;65.870;13.210;2024-03-23T09:51:30;98704.72;;;8.19;46.74
82575;BME280;72260;65.870;13.210;2024-03-23T09:53:56;98706.81;;;8.36;47.36
82575;BME280;72260;65.870;13.210;2024-03-23T09:56:22;98701.06;;;8.31;45.36
82575;BME280;72260;65.870;13.210;2024-03-23T09:58:49;98695.72;;;8.33;47.81
82575;BME280;72260;65.870;13.210;2024-03-23T10:01:14;98698.50;;;8.20;46.41
82575;BME280;72260;65.870;13.210;2024-03-23T10:03:46;98699.06;;;8.35;47.88
82575;BME280;72260;65.870;13.210;2024-03-23T10:06:13;98703.16;;;8.69;47.39
82575;BME280;72260;65.870;13.210;2024-03-23T10:08:38;98707.50;;;8.59;46.17
82575;BME280;72260;65.870;13.210;2024-03-23T10:11:14;98700.41;;;8.81;45.15
82575;BME280;72260;65.870;13.210;2024-03-23T10:13:44;98710.34;;;8.67;44.23
82575;BME280;72260;65.870;13.210;2024-03-23T10:16:12;98706.00;;;8.87;45.47
82575;BME280;72260;65.870;13.210;2024-03-23T10:18:45;98707.06;;;9.05;45.21
82575;BME280;72260;65.870;13.210;2024-03-23T10:21:11;98713.38;;;8.93;42.41
82575;BME280;72260;65.870;13.210;2024-03-23T10:23:41;98710.03;;;8.91;44.19
82575;BME280;72260;65.870;13.210;2024-03-23T10:26:22;98710.78;;;9.03;44.10
82575;BME280;72260;65.870;13.210;2024-03-23T10:28:56;98706.31;;;8.94;43.81
82575;BME280;72260;65.870;13.210;2024-03-23T10:31:29;98709.97;;;9.02;43.22
82575;BME280;72260;65.870;13.210;2024-03-23T10:33:55;98716.09;;;8.82;43.60
82575;BME280;72260;65.870;13.210;2024-03-23T10:36:22;98712.63;;;8.82;43.91
82575;BME280;72260;65.870;13.210;2024-03-23T10:38:49;98718.66;;;8.93;44.30
82575;BME280;72260;65.870;13.210;2024-03-23T10:41:15;98715.00;;;8.85;43.44
82575;BME280;72260;65.870;13.210;2024-03-23T10:43:43;98715.81;;;8.55;43.30
82575;BME280;72260;65.870;13.210;2024-03-23T10:46:10;98720.84;;;8.26;45.25
82575;BME280;72260;65.870;13.210;2024-03-23T10:48:36;98722.19;;;8.20;45.16
82575;BME280;72260;65.870;13.210;2024-03-23T10:51:01;98715.94;;;8.00;45.40
82575;BME280;72260;65.870;13.210;2024-03-23T10:53:28;98725.91;;;7.86;46.03
82575;BME280;72260;65.870;13.210;2024-03-23T10:55:55;98722.44;;;7.85;45.84
82575;BME280;72260;65.870;13.210;2024-03-23T10:58:28;98720.72;;;7.63;44.87
82575;BME280;72260;65.870;13.210;2024-03-23T11:00:54;98721.81;;;7.61;44.49
82575;BME280;72260;65.870;13.210;2024-03-23T11:03:36;98715.47;;;7.95;46.80
82575;BME280;72260;65.870;13.210;2024-03-23T11:06:06;98716.53;;;8.25;46.21
82575;BME280;72260;65.870;13.210;2024-03-23T11:08:32;98715.03;;;8.64;44.96
82575;BME280;72260;65.870;13.210;2024-03-23T11:11:19;98710.47;;;8.66;42.06
82575;BME280;72260;65.870;13.210;2024-03-23T11:13:52;98718.34;;;8.87;43.88
82575;BME280;72260;65.870;13.210;2024-03-23T11:16:26;98717.06;;;8.81;43.12
82575;BME280;72260;65.870;13.210;2024-03-23T11:19:37;98724.81;;;9.03;44.20
82575;BME280;72260;65.870;13.210;2024-03-23T11:22:04;98725.41;;;9.17;42.26
82575;BME280;72260;65.870;13.210;2024-03-23T11:24:30;98720.00;;;8.88;42.70
82575;BME280;72260;65.870;13.210;2024-03-23T11:26:56;98726.94;;;8.89;44.23
82575;BME280;72260;65.870;13.210;2024-03-23T11:29:25;98723.09;;;8.93;42.02
82575;BME280;72260;65.870;13.210;2024-03-23T11:31:52;98730.94;;;9.14;42.06
82575;BME280;72260;65.870;13.210;2024-03-23T11:34:21;98725.09;;;9.10;41.88
82575;BME280;72260;65.870;13.210;2024-03-23T11:36:47;98725.66;;;9.14;40.61
82575;BME280;72260;65.870;13.210;2024-03-23T11:39:17;98728.66;;;8.69;42.35
82575;BME280;72260;65.870;13.210;2024-03-23T11:41:54;98729.13;;;8.84;42.95
82575;BME280;72260;65.870;13.210;2024-03-23T11:44:25;98735.50;;;9.12;42.08
82575;BME280;72260;65.870;13.210;2024-03-23T11:46:51;98741.78;;;9.20;40.91
82575;BME280;72260;65.870;13.210;2024-03-23T11:49:23;98734.31;;;9.25;40.04
82575;BME280;72260;65.870;13.210;2024-03-23T11:51:49;98743.25;;;9.34;42.57
82575;BME280;72260;65.870;13.210;2024-03-23T11:54:22;98745.03;;;9.33;41.58
82575;BME280;72260;65.870;13.210;2024-03-23T11:56:59;98737.69;;;9.37;41.67
82575;BME280;72260;65.870;13.210;2024-03-23T11:59:35;98746.09;;;9.21;42.41
82575;BME280;72260;65.870;13.210;2024-03-23T12:02:12;98744.81;;;9.06;41.83
82575;BME280;72260;65.870;13.210;2024-03-23T12:04:40;98745.34;;;8.79;41.63
82575;BME280;72260;65.870;13.210;2024-03-23T12:07:15;98752.84;;;8.84;41.94
82575;BME280;72260;65.870;13.210;2024-03-23T12:09:43;98742.03;;;8.77;42.05
82575;BME280;72260;65.870;13.210;2024-03-23T12:12:17;98746.47;;;8.77;41.71
82575;BME280;72260;65.870;13.210;2024-03-23T12:14:44;98747.94;;;8.69;41.55
82575;BME280;72260;65.870;13.210;2024-03-23T12:17:14;98735.22;;;8.74;40.98
82575;BME280;72260;65.870;13.210;2024-03-23T12:19:40;98740.16;;;8.68;41.33
82575;BME280;72260;65.870;13.210;2024-03-23T12:22:07;98742.41;;;8.72;40.95
82575;BME280;72260;65.870;13.210;2024-03-23T12:24:35;98738.63;;;8.65;41.48
82575;BME280;72260;65.870;13.210;2024-03-23T12:27:01;98744.91;;;8.74;42.30
82575;BME280;72260;65.870;13.210;2024-03-23T12:29:31;98746.69;;;8.53;40.78
82575;BME280;72260;65.870;13.210;2024-03-23T12:32:01;98743.75;;;8.67;40.53
82575;BME280;72260;65.870;13.210;2024-03-23T12:34:27;98742.06;;;8.45;43.29
82575;BME280;72260;65.870;13.210;2024-03-23T12:36:53;98737.53;;;8.15;42.27
82575;BME280;72260;65.870;13.210;2024-03-23T12:39:19;98748.13;;;8.04;42.36
82575;BME280;72260;65.870;13.210;2024-03-23T12:41:46;98748.25;;;8.02;44.86
82575;BME280;72260;65.870;13.210;2024-03-23T12:44:12;98742.22;;;8.12;44.23
82575;BME280;72260;65.870;13.210;2024-03-23T12:46:39;98750.19;;;7.89;43.65
82575;BME280;72260;65.870;13.210;2024-03-23T12:49:04;98744.34;;;7.86;44.77
82575;BME280;72260;65.870;13.210;2024-03-23T12:51:31;98741.69;;;7.86;43.66
82575;BME280;72260;65.870;13.210;2024-03-23T12:53:57;98734.72;;;7.64;44.44
82575;BME280;72260;65.870;13.210;2024-03-23T12:56:22;98741.53;;;7.55;45.09
82575;BME280;72260;65.870;13.210;2024-03-23T12:58:48;98737.88;;;7.35;44.26
82575;BME280;72260;65.870;13.210;2024-03-23T13:01:19;98746.63;;;7.14;45.82
82575;BME280;72260;65.870;13.210;2024-03-23T13:03:49;98739.34;;;7.06;44.52
82575;BME280;72260;65.870;13.210;2024-03-23T13:06:15;98738.03;;;7.12;45.41
82575;BME280;72260;65.870;13.210;2024-03-23T13:08:40;98737.63;;;7.16;44.93
82575;BME280;72260;65.870;13.210;2024-03-23T13:11:09;98743.63;;;6.96;45.42
82575;BME280;72260;65.870;13.210;2024-03-23T13:13:36;98742.66;;;6.97;45.38
82575;BME280;72260;65.870;13.210;2024-03-23T13:16:02;98744.59;;;7.06;46.81
82575;BME280;72260;65.870;13.210;2024-03-23T13:18:29;98736.94;;;6.81;45.28
82575;BME280;72260;65.870;13.210;2024-03-23T13:20:55;98737.53;;;6.73;46.73
82575;BME280;72260;65.870;13.210;2024-03-23T13:23:20;98738.56;;;6.59;46.84
82575;BME280;72260;65.870;13.210;2024-03-23T13:25:53;98742.16;;;6.69;46.49
82575;BME280;72260;65.870;13.210;2024-03-23T13:28:20;98745.09;;;6.43;46.32
82575;BME280;72260;65.870;13.210;2024-03-23T13:30:56;98749.09;;;6.24;47.85
82575;BME280;72260;65.870;13.210;2024-03-23T13:33:23;98749.47;;;6.31;46.55
82575;BME280;72260;65.870;13.210;2024-03-23T13:35:53;98749.81;;;6.26;46.41
82575;BME280;72260;65.870;13.210;2024-03-23T13:38:20;98751.16;;;6.32;46.16
82575;BME280;72260;65.870;13.210;2024-03-23T13:40:54;98747.06;;;6.17;45.69
82575;BME280;72260;65.870;13.210;2024-03-23T13:43:20;98750.91;;;6.00;47.21
82575;BME280;72260;65.870;13.210;2024-03-23T13:45:47;98749.19;;;6.12;47.24
82575;BME280;72260;65.870;13.210;2024-03-23T13:48:15;98749.53;;;6.18;48.83
82575;BME280;72260;65.870;13.210;2024-03-23T13:50:41;98743.72;;;5.91;47.74
82575;BME280;72260;65.870;13.210;2024-03-23T13:53:07;98748.41;;;5.98;46.21